Hunter Army Air Field
KSVN : now visible

Airfield :











YOU CAN JOIN US ON...

 
LOGIN :

Register | Disclaimer

   EN    FR    IT 

 









Legend :    VFR   Marginal VFR   IFR   Intensive IFR   Very Intensive IFR
Visi :
Ceiling :
>= 8 km
>= 3000ft
5 to 8 km
1000 to 3000 ft
1500m to 5 km
500 to 1000 ft
800 to 1500m
200 to 500 ft
< 800m
< 200 ft
Symbols :   Thunderstorms  Fog  Heavy snow  Heavy precipitations  Wind > 20 kt






- Airport Elevation : 41 ft


KSVN - Hunter Army Air Field

CURRENT METAR :
  • 161055Z 27003KT 10SM CLR 24/22 A3001 RMK AO2A SLP165 T02360222 $

EXPIRED METARs :
  • 160955Z 22003KT 10SM CLR 24/22 A3000 RMK AO2A SLP162 T02430222 $
  • 160855Z AUTO 20003KT 10SM CLR 25/23 A2998 RMK AO2 SLP155 T02470225 55000 $
  • 160755Z AUTO 21005KT 10SM CLR 25/23 A2996 RMK AO2 SLPNO T02500227 $
  • 160655Z AUTO 22006KT 10SM CLR 26/23 A2997 RMK AO2 SLP152 T02550226 $

TAF TAF KSVN
Valid from the 16 at 09:00 until the 17 at 15:00 UTC


160900Z 1609/1715 24006KT 9999 FEW020 FEW150 QNH2998INS
BECMG 1617/1618 18010KT 9999 VCTS BKN030CB BKN160 QNH2996INS
TEMPO 1618/1623 20010G20KT 6000 -TSRA BKN020CB
BECMG 1623/1624 19009KT 9999 NSW SCT025 BKN150 QNH2995INS
BECMG 1707/1708 21006KT 9999 BKN030 BKN150 QNH2998INS TX34/1619Z TN26/1610Z
KZJX FIR / North America



MET'MAP, your aeronautical weather chart ! - Copyright ORBIFLY December 2007 - Disclaimer

ORBIFLY MET'MAP TEAM :

Programming & Development : Alexandra Zaïnal
Original concept : Baudouin d'Aumeries
Technical & hardware support : Manuel Goepfert
Assistance : Marc-Olivier Méhu




SOURCES & CREDITS :

   NOAA       Earth
Advisory